createdAt,value
2022-10-03T00:00:22.304Z,3.30
2022-10-03T00:03:30.247Z,2.70
2022-10-03T00:06:43.679Z,2.33
2022-10-03T00:09:52.566Z,2.50
2022-10-03T00:13:01.657Z,2.20
2022-10-03T00:15:54.093Z,2.70
2022-10-03T00:19:06.784Z,3.37
2022-10-03T00:22:18.107Z,2.47
2022-10-03T00:25:26.555Z,2.60
2022-10-03T00:28:24.800Z,2.30
2022-10-03T00:31:24.406Z,2.70
2022-10-03T00:34:38.951Z,2.33
2022-10-03T00:37:49.307Z,2.90
2022-10-03T00:40:45.533Z,3.27
2022-10-03T00:43:44.407Z,2.80
2022-10-03T00:46:31.848Z,2.63
2022-10-03T00:49:57.228Z,3.10
2022-10-03T00:52:55.132Z,2.67
2022-10-03T00:56:09.995Z,2.30
2022-10-03T00:59:14.316Z,2.67
2022-10-03T01:02:43.607Z,3.37
2022-10-03T01:06:00.873Z,3.23
2022-10-03T01:09:12.547Z,2.30
2022-10-03T01:12:22.791Z,2.73
2022-10-03T01:15:27.980Z,3.50
2022-10-03T01:18:38.840Z,3.17
2022-10-03T01:21:33.849Z,2.37
2022-10-03T01:24:29.749Z,2.80
2022-10-03T01:27:56.187Z,2.57
2022-10-03T01:30:56.093Z,2.97
2022-10-03T01:33:59.673Z,2.50
2022-10-03T01:37:23.726Z,2.47
2022-10-03T01:40:32.077Z,2.40
2022-10-03T01:43:22.521Z,2.53
2022-10-03T01:46:22.344Z,2.43
2022-10-03T01:49:19.753Z,2.30
2022-10-03T01:52:13.796Z,2.10
2022-10-03T01:55:33.335Z,2.33
2022-10-03T01:58:27.081Z,3.60
2022-10-03T02:01:28.640Z,2.90
2022-10-03T02:04:21.770Z,2.57
2022-10-03T02:07:44.102Z,2.70
2022-10-03T02:10:56.569Z,2.70
2022-10-03T02:13:58.833Z,2.50
2022-10-03T02:16:59.339Z,2.73
2022-10-03T02:20:02.206Z,2.60
2022-10-03T02:22:53.330Z,2.73
2022-10-03T02:26:14.187Z,2.73
2022-10-03T02:29:38.931Z,2.87
2022-10-03T02:32:39.147Z,2.20
2022-10-03T02:35:46.067Z,2.83
2022-10-03T02:38:47.803Z,3.17
2022-10-03T02:41:43.585Z,3.17
2022-10-03T02:45:14.935Z,3.10
2022-10-03T02:48:31.262Z,2.77
2022-10-03T02:51:47.284Z,3.20
2022-10-03T02:54:54.797Z,2.33
2022-10-03T02:58:04.409Z,2.63
2022-10-03T03:01:03.596Z,2.17
2022-10-03T03:03:56.140Z,2.40
2022-10-03T03:07:01.016Z,2.87
2022-10-03T03:09:47.863Z,2.40
2022-10-03T03:13:25.969Z,3.77
2022-10-03T03:16:25.105Z,2.47
2022-10-03T03:19:42.933Z,2.57
2022-10-03T03:22:47.871Z,2.30
2022-10-03T03:26:01.073Z,2.60
2022-10-03T03:28:57.042Z,3.40
2022-10-03T03:31:54.581Z,2.50
2022-10-03T03:35:07.338Z,2.33
2022-10-03T03:37:54.206Z,3.03
2022-10-03T03:41:03.849Z,3.40
2022-10-03T03:43:50.758Z,2.40
2022-10-03T03:47:00.696Z,2.10
2022-10-03T03:50:15.084Z,2.73
2022-10-03T03:53:20.968Z,2.83
2022-10-03T03:56:29.244Z,2.83
2022-10-03T03:59:53.458Z,3.27
2022-10-03T04:03:24.675Z,2.37
2022-10-03T04:06:40.811Z,3.37
2022-10-03T04:10:05.649Z,2.40
2022-10-03T04:13:11.467Z,3.00
2022-10-03T04:16:17.224Z,2.47
2022-10-03T04:19:32.705Z,2.90
2022-10-03T04:22:41.393Z,2.50
2022-10-03T04:25:34.381Z,2.67
2022-10-03T04:28:44.017Z,2.37
2022-10-03T04:31:39.364Z,3.07
2022-10-03T04:34:44.230Z,1.97
2022-10-03T04:37:49.293Z,2.57
2022-10-03T04:40:59.559Z,3.03
2022-10-03T04:43:54.806Z,2.77
2022-10-03T04:46:55.265Z,3.67
2022-10-03T04:49:52.982Z,2.70
2022-10-03T04:53:03.680Z,3.70
2022-10-03T04:56:12.836Z,2.80
2022-10-03T04:59:20.909Z,2.57
2022-10-03T05:02:14.552Z,2.67
2022-10-03T05:05:16.748Z,2.67
2022-10-03T05:08:14.695Z,3.17
2022-10-03T05:11:12.460Z,3.07
2022-10-03T05:14:02.703Z,2.77
2022-10-03T05:17:19.632Z,2.63
2022-10-03T05:20:44.200Z,3.20
2022-10-03T05:23:50.054Z,2.63
2022-10-03T05:26:45.416Z,3.03
2022-10-03T05:29:43.833Z,2.93
2022-10-03T05:32:42.594Z,2.97
2022-10-03T05:35:54.724Z,2.33
2022-10-03T05:39:19.216Z,2.40
2022-10-03T05:42:34.253Z,3.40
2022-10-03T05:45:48.779Z,2.77
2022-10-03T05:48:56.473Z,2.90
2022-10-03T05:51:55.249Z,2.57
2022-10-03T05:55:23.514Z,2.70
2022-10-03T05:58:34.888Z,3.47
2022-10-03T06:01:46.221Z,2.80
2022-10-03T06:04:39.077Z,3.13
2022-10-03T06:07:30.934Z,2.90
2022-10-03T06:10:41.863Z,2.70
2022-10-03T06:13:47.593Z,3.07
2022-10-03T06:17:04.902Z,2.93
2022-10-03T06:20:27.999Z,3.20
2022-10-03T06:23:52.117Z,4.30
2022-10-03T06:27:03.753Z,3.00
2022-10-03T06:30:11.687Z,3.20
2022-10-03T06:33:51.060Z,3.43
2022-10-03T06:36:56.860Z,3.47
2022-10-03T06:40:04.181Z,3.20
2022-10-03T06:43:09.873Z,4.17
2022-10-03T06:46:26.660Z,2.40
2022-10-03T06:50:04.045Z,3.37
2022-10-03T06:53:09.818Z,3.37
2022-10-03T06:56:31.597Z,3.83
2022-10-03T06:59:37.268Z,3.60
2022-10-03T07:02:58.023Z,3.30
2022-10-03T07:06:24.090Z,3.33
2022-10-03T07:10:10.860Z,2.73
2022-10-03T07:13:15.254Z,2.87
2022-10-03T07:16:27.533Z,3.07
2022-10-03T07:19:19.982Z,3.27
2022-10-03T07:22:36.700Z,3.30
2022-10-03T07:25:35.924Z,2.67
2022-10-03T07:28:49.776Z,3.33
2022-10-03T07:32:01.095Z,3.43
2022-10-03T07:35:07.251Z,4.03
2022-10-03T07:38:57.749Z,3.57
2022-10-03T07:42:09.234Z,2.60
2022-10-03T07:45:24.908Z,2.67
2022-10-03T07:48:50.439Z,4.53
2022-10-03T07:51:52.545Z,2.47
2022-10-03T07:54:57.568Z,3.47
2022-10-03T07:58:13.230Z,2.90
2022-10-03T08:01:06.332Z,3.00
2022-10-03T08:04:08.375Z,2.87
2022-10-03T08:07:25.962Z,2.67
2022-10-03T08:10:18.662Z,3.73
2022-10-03T08:13:13.477Z,3.00
2022-10-03T08:16:33.924Z,3.33
2022-10-03T08:19:54.634Z,3.83
2022-10-03T08:22:57.659Z,3.20
2022-10-03T08:25:47.681Z,3.83
2022-10-03T08:29:12.715Z,3.03
2022-10-03T08:32:14.900Z,3.37
2022-10-03T08:35:35.255Z,3.13
2022-10-03T08:38:32.965Z,2.83
2022-10-03T08:41:46.073Z,2.97
2022-10-03T08:44:56.339Z,2.80
2022-10-03T08:48:10.479Z,3.57
2022-10-03T08:51:26.360Z,3.13
2022-10-03T08:54:19.460Z,3.13
2022-10-03T08:57:17.572Z,2.83
2022-10-03T09:00:07.766Z,3.00
2022-10-03T09:03:37.846Z,3.15
2022-10-03T09:10:35.375Z,3.42
2022-10-03T09:14:18.107Z,2.78
2022-10-03T09:17:32.987Z,2.92
2022-10-03T09:20:26.356Z,2.75
2022-10-03T09:23:33.528Z,2.70
2022-10-03T09:26:42.793Z,2.80
2022-10-03T09:29:51.808Z,2.92
2022-10-03T09:33:18.175Z,2.33
2022-10-03T09:36:12.984Z,2.63
2022-10-03T09:39:21.472Z,2.85
2022-10-03T09:42:50.884Z,2.42
2022-10-03T09:45:59.550Z,2.70
2022-10-03T09:49:15.163Z,2.72
2022-10-03T09:52:25.205Z,2.58
2022-10-03T09:55:51.913Z,2.20
2022-10-03T09:58:44.524Z,2.50
2022-10-03T10:01:40.698Z,2.22
2022-10-03T10:04:56.729Z,2.90
2022-10-03T10:08:21.198Z,2.75
2022-10-03T10:11:35.027Z,2.53
2022-10-03T10:14:36.006Z,2.15
2022-10-03T10:18:00.745Z,3.00
2022-10-03T10:20:47.679Z,2.50
2022-10-03T10:23:40.452Z,2.22
2022-10-03T10:27:26.391Z,2.15
2022-10-03T10:30:19.264Z,2.15
2022-10-03T10:33:51.995Z,2.55
2022-10-03T10:36:59.164Z,2.08
2022-10-03T10:39:53.090Z,2.40
2022-10-03T10:42:39.996Z,2.65
2022-10-03T10:45:52.510Z,2.80
2022-10-03T10:49:19.032Z,2.22
2022-10-03T10:52:34.696Z,2.47
2022-10-03T10:55:46.347Z,2.97
2022-10-03T10:58:58.033Z,2.50
2022-10-03T11:02:38.653Z,2.50
2022-10-03T11:06:17.155Z,2.80
2022-10-03T11:09:25.411Z,2.80
2022-10-03T11:12:41.836Z,2.05
2022-10-03T11:16:06.213Z,2.60
2022-10-03T11:19:02.223Z,2.20
2022-10-03T11:22:26.591Z,2.03
2022-10-03T11:25:31.944Z,2.75
2022-10-03T11:28:56.287Z,2.33
2022-10-03T11:32:10.433Z,2.25
2022-10-03T11:35:34.260Z,2.58
2022-10-03T11:38:26.980Z,2.28
2022-10-03T11:41:47.846Z,2.00
2022-10-03T11:44:42.195Z,1.95
2022-10-03T11:47:49.828Z,2.50
2022-10-03T11:51:03.023Z,2.33
2022-10-03T11:54:31.154Z,2.45
2022-10-03T11:57:28.420Z,2.40
2022-10-03T12:00:23.335Z,1.95
2022-10-03T12:03:23.040Z,2.17
2022-10-03T12:06:47.441Z,2.15
2022-10-03T12:09:56.847Z,2.15
2022-10-03T12:12:52.045Z,1.80
2022-10-03T12:15:45.589Z,2.17
2022-10-03T12:18:34.137Z,2.28
2022-10-03T12:21:33.067Z,2.30
2022-10-03T12:24:35.380Z,1.70
2022-10-03T12:27:39.512Z,1.77
2022-10-03T12:30:34.412Z,1.90
2022-10-03T12:33:32.829Z,2.00
2022-10-03T12:36:58.188Z,2.10
2022-10-03T12:40:01.606Z,1.75
2022-10-03T12:43:14.514Z,1.70
2022-10-03T12:46:10.011Z,1.90
2022-10-03T12:49:11.328Z,2.13
2022-10-03T12:52:01.613Z,1.70
2022-10-03T12:55:13.666Z,2.33
2022-10-03T12:58:19.464Z,1.70
2022-10-03T13:01:15.144Z,2.22
2022-10-03T13:04:03.775Z,2.08
2022-10-03T13:07:18.066Z,2.03
2022-10-03T13:10:27.815Z,1.67
2022-10-03T13:13:44.669Z,2.38
2022-10-03T13:17:11.652Z,2.47
2022-10-03T13:20:21.154Z,2.97
2022-10-03T13:23:16.971Z,1.85
2022-10-03T13:26:19.724Z,2.22
2022-10-03T13:29:25.711Z,2.35
2022-10-03T13:32:18.885Z,1.80
2022-10-03T13:35:37.580Z,1.65
2022-10-03T13:38:59.853Z,1.90
2022-10-03T13:42:10.410Z,1.88
2022-10-03T13:45:03.990Z,2.25
2022-10-03T13:47:56.043Z,2.20
2022-10-03T13:51:02.522Z,2.20
2022-10-03T13:54:06.829Z,1.80
2022-10-03T13:57:09.112Z,2.03
2022-10-03T14:00:00.218Z,2.13
2022-10-03T14:02:47.217Z,1.70
2022-10-03T14:05:53.103Z,1.83
2022-10-03T14:09:16.003Z,2.20
2022-10-03T14:12:08.838Z,2.50
2022-10-03T14:15:40.031Z,1.80
2022-10-03T14:18:37.371Z,2.90
2022-10-03T14:21:36.723Z,2.22
2022-10-03T14:24:36.824Z,3.60
2022-10-03T14:27:52.935Z,2.35
2022-10-03T14:31:06.634Z,2.83
2022-10-03T14:34:28.100Z,2.43
2022-10-03T14:37:26.655Z,2.03
2022-10-03T14:40:22.244Z,2.30
2022-10-03T14:43:28.266Z,2.40
2022-10-03T14:46:16.231Z,2.22
2022-10-03T14:49:12.984Z,2.67
2022-10-03T14:52:21.793Z,2.20
2022-10-03T14:55:30.012Z,2.23
2022-10-03T14:58:21.938Z,1.73
2022-10-03T15:01:20.638Z,2.27
2022-10-03T15:04:15.577Z,1.87
2022-10-03T15:07:04.012Z,2.33
2022-10-03T15:09:56.111Z,2.00
2022-10-03T15:12:47.282Z,2.03
2022-10-03T15:15:39.433Z,1.60
2022-10-03T15:18:26.946Z,2.13
2022-10-03T15:21:17.435Z,1.70
2022-10-03T15:24:06.836Z,1.90
2022-10-03T15:27:04.334Z,2.17
2022-10-03T15:29:55.632Z,1.90
2022-10-03T15:32:47.168Z,1.93
2022-10-03T15:35:41.478Z,1.77
2022-10-03T15:38:39.549Z,2.17
2022-10-03T15:41:27.506Z,1.93
2022-10-03T15:44:32.962Z,2.03
2022-10-03T15:47:26.985Z,2.37
2022-10-03T15:50:18.279Z,2.20
2022-10-03T15:53:35.208Z,2.00
2022-10-03T15:56:55.240Z,1.90
2022-10-03T15:59:45.281Z,3.13
2022-10-03T16:02:49.847Z,2.03
2022-10-03T16:05:42.286Z,2.17
2022-10-03T16:08:33.327Z,2.30
2022-10-03T16:11:24.832Z,2.20
2022-10-03T16:14:23.792Z,2.40
2022-10-03T16:17:28.900Z,2.03
2022-10-03T16:20:35.351Z,2.40
2022-10-03T16:23:34.416Z,2.37
2022-10-03T16:26:29.995Z,2.50
2022-10-03T16:29:22.898Z,2.37
2022-10-03T16:32:31.232Z,2.43
2022-10-03T16:35:33.023Z,2.20
2022-10-03T16:38:26.377Z,2.37
2022-10-03T16:41:47.503Z,2.97
2022-10-03T16:44:48.318Z,3.63
2022-10-03T16:47:36.498Z,3.23
2022-10-03T16:50:27.478Z,3.27
2022-10-03T16:53:14.971Z,2.20
2022-10-03T16:56:13.336Z,3.30
2022-10-03T16:59:06.579Z,2.60
2022-10-03T17:02:01.854Z,2.20
2022-10-03T17:04:52.985Z,1.87
2022-10-03T17:07:50.156Z,2.10
2022-10-03T17:10:39.882Z,2.73
2022-10-03T17:13:44.290Z,2.50
2022-10-03T17:17:22.954Z,2.47
2022-10-03T17:20:18.067Z,2.60
2022-10-03T17:23:14.619Z,2.57
2022-10-03T17:26:21.180Z,2.20
2022-10-03T17:29:23.565Z,2.47
2022-10-03T17:32:55.063Z,3.05
2022-10-03T17:36:02.910Z,2.90
2022-10-03T17:39:08.099Z,2.27
2022-10-03T17:42:31.454Z,2.30
2022-10-03T17:45:44.797Z,2.00
2022-10-03T17:48:39.148Z,5.57
2022-10-03T17:51:41.702Z,4.53
2022-10-03T17:54:33.622Z,3.50
2022-10-03T17:57:27.877Z,2.63
2022-10-03T18:00:20.029Z,2.20
2022-10-03T18:03:22.152Z,2.43
2022-10-03T18:06:34.246Z,2.73
2022-10-03T18:09:40.571Z,2.20
2022-10-03T18:12:40.278Z,2.30
2022-10-03T18:16:11.114Z,2.70
2022-10-03T18:19:13.933Z,2.60
2022-10-03T18:22:07.751Z,3.00
2022-10-03T18:25:31.005Z,2.20
2022-10-03T18:28:39.666Z,2.77
2022-10-03T18:31:30.888Z,2.60
2022-10-03T18:34:24.003Z,3.03
2022-10-03T18:37:52.143Z,2.70
2022-10-03T18:41:05.031Z,2.50
2022-10-03T18:44:01.774Z,2.77
2022-10-03T18:46:53.164Z,2.40
2022-10-03T18:49:44.660Z,2.50
2022-10-03T18:52:50.677Z,1.97
2022-10-03T18:55:44.455Z,2.43
2022-10-03T18:58:36.641Z,2.70
2022-10-03T19:01:31.742Z,2.40
2022-10-03T19:04:42.915Z,3.20
2022-10-03T19:07:37.245Z,2.73
2022-10-03T19:10:36.004Z,2.70
2022-10-03T19:13:48.454Z,3.00
2022-10-03T19:17:09.850Z,3.07
2022-10-03T19:20:12.034Z,2.53
2022-10-03T19:23:11.059Z,2.90
2022-10-03T19:26:05.211Z,2.70
2022-10-03T19:28:56.284Z,2.50
2022-10-03T19:32:01.703Z,3.00
2022-10-03T19:34:50.303Z,2.93
2022-10-03T19:37:45.526Z,2.63
2022-10-03T19:41:06.722Z,3.10
2022-10-03T19:43:55.364Z,3.10
2022-10-03T19:47:03.405Z,2.80
2022-10-03T19:50:15.830Z,2.40
2022-10-03T19:53:14.197Z,2.53
2022-10-03T19:56:04.415Z,2.50
2022-10-03T19:59:17.912Z,2.40
2022-10-03T20:02:06.934Z,2.97
2022-10-03T20:04:56.891Z,2.77
2022-10-03T20:07:59.577Z,2.97
2022-10-03T20:10:52.565Z,3.30
2022-10-03T20:13:58.576Z,3.67
2022-10-03T20:16:48.808Z,3.50
2022-10-03T20:19:56.163Z,2.40
2022-10-03T20:22:43.630Z,3.17
2022-10-03T20:25:36.664Z,3.50
2022-10-03T20:28:37.519Z,3.80
2022-10-03T20:31:27.805Z,3.87
2022-10-03T20:34:21.077Z,3.13
2022-10-03T20:37:33.963Z,3.40
2022-10-03T20:40:30.613Z,3.50
2022-10-03T20:43:42.472Z,4.00
2022-10-03T20:46:45.656Z,6.70
2022-10-03T20:49:54.836Z,3.90
2022-10-03T20:52:42.278Z,3.87
2022-10-03T20:55:44.350Z,7.90
2022-10-03T20:58:41.352Z,5.67
2022-10-03T21:01:31.153Z,4.97
2022-10-03T21:04:29.265Z,3.30
2022-10-03T21:07:54.362Z,3.77
2022-10-03T21:10:48.098Z,3.13
2022-10-03T21:13:56.047Z,3.43
2022-10-03T21:16:46.981Z,3.10
2022-10-03T21:19:33.881Z,2.83
2022-10-03T21:22:23.674Z,2.50
2022-10-03T21:25:34.243Z,3.63
2022-10-03T21:28:31.945Z,2.80
2022-10-03T21:31:25.947Z,2.63
2022-10-03T21:34:46.651Z,2.60
2022-10-03T21:37:42.319Z,2.70
2022-10-03T21:41:09.615Z,2.83
2022-10-03T21:44:10.925Z,2.90
2022-10-03T21:47:10.545Z,3.53
2022-10-03T21:50:05.117Z,2.80
2022-10-03T21:53:34.940Z,2.73
2022-10-03T21:56:41.442Z,2.47
2022-10-03T21:59:37.089Z,2.97
2022-10-03T22:02:52.984Z,2.90
2022-10-03T22:05:58.593Z,3.23
2022-10-03T22:08:48.508Z,2.60
2022-10-03T22:12:06.825Z,2.97
2022-10-03T22:15:25.899Z,2.37
2022-10-03T22:18:19.248Z,3.10
2022-10-03T22:21:22.284Z,2.60
2022-10-03T22:24:37.938Z,3.27
2022-10-03T22:27:38.077Z,2.80
2022-10-03T22:30:25.181Z,2.97
2022-10-03T22:33:43.351Z,2.43
2022-10-03T22:36:34.235Z,2.90
2022-10-03T22:39:22.264Z,2.83
2022-10-03T22:42:14.350Z,2.93
2022-10-03T22:45:03.327Z,2.43
2022-10-03T22:47:55.153Z,2.63
2022-10-03T22:50:43.144Z,2.70
2022-10-03T22:53:34.834Z,3.20
2022-10-03T22:56:41.195Z,2.77
2022-10-03T22:59:33.839Z,3.00
2022-10-03T23:02:32.003Z,2.50
2022-10-03T23:05:40.104Z,2.60
2022-10-03T23:08:48.640Z,2.80
2022-10-03T23:11:38.787Z,2.77
2022-10-03T23:14:33.071Z,3.30
2022-10-03T23:17:38.766Z,2.80
2022-10-03T23:20:56.595Z,3.33
2022-10-03T23:24:03.195Z,2.70
2022-10-03T23:26:59.288Z,2.90
2022-10-03T23:30:12.201Z,3.43
2022-10-03T23:33:00.450Z,4.30
2022-10-03T23:35:48.452Z,4.70
2022-10-03T23:38:36.071Z,4.77
2022-10-03T23:41:44.085Z,5.83
2022-10-03T23:44:49.631Z,5.23
2022-10-03T23:47:49.763Z,6.80
2022-10-03T23:50:49.714Z,6.57
2022-10-03T23:53:39.782Z,7.60
2022-10-03T23:56:44.671Z,7.63
2022-10-03T23:59:35.905Z,8.23
